Time;durP1;ratioP1;P1;durP2;ratioP2;P2;SDS_P1;SDS_P2;PMS_P1;PMS_P2;Temp;Humidity;BMP_temperature;BMP_pressure;BME280_temperature;BME280_humidity;BME280_pressure;Samples;Min_cycle;Max_cycle;Signal;HPM_P1;HPM_P2
2021/11/28 00:01:43;;;;;;;8.27;6.70;;;22.90;34.80;;;;;;5053347;28;20139;-61
2021/11/28 00:04:13;;;;;;;6.43;5.75;;;22.90;34.30;;;;;;5059741;28;20048;-61
2021/11/28 00:06:53;;;;;;;8.35;6.50;;;22.90;34.30;;;;;;5066009;28;20056;-61
2021/11/28 00:09:40;;;;;;;6.68;5.95;;;22.90;34.30;;;;;;5066760;28;20044;-61
2021/11/28 00:12:11;;;;;;;8.82;6.97;;;22.90;34.30;;;;;;5052881;28;20135;-61
2021/11/28 00:14:39;;;;;;;8.20;6.75;;;22.90;34.30;;;;;;5065327;28;20044;-61
2021/11/28 00:17:08;;;;;;;8.75;6.85;;;22.90;34.30;;;;;;5053720;28;20052;-61
2021/11/28 00:19:36;;;;;;;7.28;6.32;;;22.90;34.30;;;;;;5044761;28;20048;-61
2021/11/28 00:22:05;;;;;;;8.27;6.82;;;22.90;34.30;;;;;;5043956;28;20079;-61
2021/11/28 00:24:36;;;;;;;8.75;6.57;;;22.90;34.40;;;;;;5044714;28;20072;-61
2021/11/28 00:27:05;;;;;;;7.75;6.53;;;22.90;34.40;;;;;;5044915;28;20117;-61
2021/11/28 00:29:34;;;;;;;8.63;6.55;;;22.90;34.40;;;;;;5043571;28;20076;-61
2021/11/28 00:32:01;;;;;;;7.70;6.50;;;22.90;34.40;;;;;;5045043;28;20567;-61
2021/11/28 00:34:29;;;;;;;7.28;6.57;;;22.90;34.40;;;;;;5043633;28;20052;-61
2021/11/28 00:36:56;;;;;;;8.20;6.57;;;22.90;34.40;;;;;;5044815;28;20067;-63
2021/11/28 00:39:23;;;;;;;7.07;6.10;;;22.80;34.40;;;;;;5044418;28;20053;-61
2021/11/28 00:41:52;;;;;;;7.50;6.13;;;22.80;34.40;;;;;;5039619;28;20143;-61
2021/11/28 00:44:28;;;;;;;7.72;6.53;;;22.80;34.40;;;;;;5042739;28;20055;-61
2021/11/28 00:46:56;;;;;;;8.50;6.82;;;22.80;34.40;;;;;;5044846;28;20156;-61
2021/11/28 00:49:25;;;;;;;7.90;6.50;;;22.80;34.40;;;;;;5043556;28;20048;-61
2021/11/28 00:51:56;;;;;;;8.13;6.40;;;22.80;34.40;;;;;;5039541;28;20045;-61
2021/11/28 00:54:26;;;;;;;8.07;6.35;;;22.80;34.40;;;;;;5041902;28;20048;-61
2021/11/28 00:56:54;;;;;;;6.57;5.82;;;22.80;34.40;;;;;;5044711;28;20114;-61
2021/11/28 00:59:21;;;;;;;6.85;5.88;;;22.80;34.40;;;;;;5045280;28;20102;-61
2021/11/28 01:01:50;;;;;;;6.05;5.45;;;22.80;34.40;;;;;;5040478;28;21049;-61
2021/11/28 01:04:17;;;;;;;9.70;6.57;;;22.80;34.50;;;;;;5044654;28;20452;-61
2021/11/28 01:06:45;;;;;;;7.53;6.32;;;22.80;34.50;;;;;;5045007;28;20063;-61
2021/11/28 01:09:12;;;;;;;7.50;6.20;;;22.90;34.50;;;;;;5044435;28;20165;-61
2021/11/28 01:11:39;;;;;;;7.68;6.60;;;22.80;34.50;;;;;;5043927;28;20106;-61
2021/11/28 01:14:06;;;;;;;6.43;5.82;;;22.80;34.40;;;;;;5042013;28;20498;-61
2021/11/28 01:16:34;;;;;;;8.20;6.30;;;22.80;34.40;;;;;;5052415;28;20084;-61
2021/11/28 01:19:04;;;;;;;8.02;6.43;;;22.80;34.50;;;;;;5044078;28;20087;-61
2021/11/28 01:21:32;;;;;;;7.28;5.75;;;22.90;34.50;;;;;;5045569;28;20080;-61
2021/11/28 01:23:59;;;;;;;7.03;5.53;;;22.80;34.50;;;;;;5040867;28;20048;-61
2021/11/28 01:26:28;;;;;;;7.75;6.45;;;22.80;34.50;;;;;;5044437;28;20049;-61
2021/11/28 01:28:56;;;;;;;7.10;5.85;;;22.90;34.50;;;;;;5044026;28;20080;-61
2021/11/28 01:31:24;;;;;;;6.22;5.18;;;22.80;34.50;;;;;;5041240;28;20048;-61
2021/11/28 01:33:51;;;;;;;6.65;5.88;;;22.90;34.50;;;;;;5045037;28;20424;-61
2021/11/28 01:36:19;;;;;;;6.97;6.15;;;22.90;34.50;;;;;;5044095;28;20078;-61
2021/11/28 01:38:46;;;;;;;6.50;5.30;;;22.90;34.50;;;;;;5044157;28;20045;-61
2021/11/28 01:41:13;;;;;;;5.97;5.25;;;22.90;34.60;;;;;;5044192;28;21336;-61
2021/11/28 01:43:40;;;;;;;6.63;5.72;;;22.90;34.50;;;;;;5040304;28;20068;-61
2021/11/28 01:46:08;;;;;;;7.03;5.43;;;22.90;34.50;;;;;;5042509;28;20083;-61
2021/11/28 01:48:36;;;;;;;6.63;5.93;;;22.90;34.50;;;;;;5042787;28;20135;-61
2021/11/28 01:51:05;;;;;;;7.15;5.97;;;22.90;34.50;;;;;;5040828;28;20148;-61
2021/11/28 01:53:33;;;;;;;7.65;6.07;;;22.90;34.40;;;;;;5050530;28;20142;-61
2021/11/28 01:56:01;;;;;;;6.15;5.00;;;22.80;34.40;;;;;;5067028;28;20127;-61
2021/11/28 01:58:30;;;;;;;6.68;6.03;;;22.90;34.50;;;;;;5068569;28;20123;-61
2021/11/28 02:01:00;;;;;;;7.95;6.20;;;22.90;34.50;;;;;;5063715;28;20098;-61
2021/11/28 02:03:28;;;;;;;7.40;6.15;;;22.80;34.40;;;;;;5047467;28;20098;-61
2021/11/28 02:05:58;;;;;;;6.88;5.50;;;22.90;34.50;;;;;;5047204;28;20135;-61
2021/11/28 02:08:25;;;;;;;;;;;22.80;34.40;;;;;;5049107;28;20052;-61
2021/11/28 02:10:54;;;;;;;5.20;4.70;;;22.80;34.50;;;;;;5045698;28;20369;-61
2021/11/28 02:13:23;;;;;;;5.60;4.95;;;22.80;34.50;;;;;;5053582;28;20052;-61
2021/11/28 02:15:51;;;;;;;5.72;5.20;;;22.80;34.50;;;;;;5047794;28;20080;-61
2021/11/28 02:18:27;;;;;;;6.32;5.10;;;22.80;34.50;;;;;;5047769;28;20048;-61
2021/11/28 02:20:58;;;;;;;6.05;5.25;;;22.80;34.50;;;;;;5043773;28;20506;-61
2021/11/28 02:23:26;;;;;;;6.15;5.30;;;22.80;34.60;;;;;;5054209;28;20090;-60
2021/11/28 02:25:59;;;;;;;6.10;5.30;;;22.80;34.60;;;;;;5067321;28;20909;-60
2021/11/28 02:28:28;;;;;;;6.57;5.47;;;22.80;34.60;;;;;;5066308;28;20058;-60
2021/11/28 02:30:55;;;;;;;6.90;5.53;;;22.80;34.60;;;;;;5061339;28;20122;-60
2021/11/28 02:33:23;;;;;;;7.28;5.50;;;22.80;34.60;;;;;;5046255;28;20139;-60
2021/11/28 02:35:50;;;;;;;7.10;5.53;;;22.80;34.60;;;;;;5047684;28;20626;-60
2021/11/28 02:38:17;;;;;;;6.28;5.28;;;22.80;34.60;;;;;;5048405;28;20569;-60
2021/11/28 02:40:45;;;;;;;5.70;5.13;;;22.80;34.60;;;;;;5044917;28;20060;-61
2021/11/28 02:43:13;;;;;;;7.70;5.85;;;22.80;34.60;;;;;;5044863;28;20106;-60
2021/11/28 02:45:41;;;;;;;5.80;5.20;;;22.80;34.60;;;;;;5047852;28;20114;-60
2021/11/28 02:48:11;;;;;;;7.90;6.03;;;22.80;34.60;;;;;;5046993;28;20537;-60
2021/11/28 02:50:39;;;;;;;8.68;5.40;;;22.80;34.60;;;;;;5046893;28;20080;-60
2021/11/28 02:53:08;;;;;;;7.30;5.47;;;22.80;34.60;;;;;;5052776;28;20143;-60
2021/11/28 02:55:45;;;;;;;7.13;5.88;;;22.80;34.60;;;;;;5066992;28;20059;-60
2021/11/28 02:58:15;;;;;;;6.40;5.65;;;22.80;34.60;;;;;;5066795;28;20138;-60
2021/11/28 03:00:57;;;;;;;6.72;5.30;;;22.80;34.60;;;;;;5066769;28;20125;-61
2021/11/28 03:03:25;;;;;;;6.03;5.20;;;22.80;34.60;;;;;;5046997;28;20072;-61
2021/11/28 03:05:52;;;;;;;5.60;4.97;;;22.80;34.60;;;;;;5045658;28;20044;-60
2021/11/28 03:08:19;;;;;;;8.55;6.05;;;22.70;34.60;;;;;;5046184;28;20052;-62
2021/11/28 03:10:55;;;;;;;5.85;5.05;;;22.70;34.60;;;;;;5044377;28;20045;-61
2021/11/28 03:13:32;;;;;;;6.43;5.05;;;22.80;34.70;;;;;;5053105;28;20505;-61
2021/11/28 03:16:03;;;;;;;6.50;5.50;;;22.80;34.70;;;;;;5063737;28;20114;-60
2021/11/28 03:18:33;;;;;;;5.07;4.57;;;22.80;34.70;;;;;;5047060;28;20064;-62
2021/11/28 03:21:08;;;;;;;6.22;5.28;;;22.80;35.20;;;;;;5044812;28;20765;-61
2021/11/28 03:23:37;;;;;;;6.05;5.35;;;22.80;34.70;;;;;;5056645;28;20171;-62
2021/11/28 03:26:11;;;;;;;6.65;5.72;;;22.80;34.70;;;;;;5064837;28;20056;-62
2021/11/28 03:28:42;;;;;;;6.40;4.97;;;22.80;34.60;;;;;;5066608;28;20085;-62
2021/11/28 03:31:09;;;;;;;6.10;5.13;;;22.80;34.60;;;;;;5058265;28;20084;-62
2021/11/28 03:33:39;;;;;;;5.82;4.75;;;22.80;34.60;;;;;;5053566;28;20052;-62
2021/11/28 03:36:08;;;;;;;6.63;5.30;;;22.80;34.60;;;;;;5065078;28;20106;-60
2021/11/28 03:38:37;;;;;;;6.25;5.32;;;22.80;34.60;;;;;;5066686;28;20451;-62
2021/11/28 03:41:07;;;;;;;6.73;5.50;;;22.80;34.60;;;;;;5059887;28;20040;-60
2021/11/28 03:43:35;;;;;;;5.03;4.53;;;22.80;34.60;;;;;;5041180;28;20109;-60
2021/11/28 03:46:03;;;;;;;4.78;4.28;;;22.80;34.60;;;;;;5045593;28;20099;-62
2021/11/28 03:48:31;;;;;;;6.15;5.18;;;22.80;34.60;;;;;;5044490;28;20113;-60
2021/11/28 03:50:58;;;;;;;5.68;4.85;;;22.80;34.60;;;;;;5043397;28;20187;-61
2021/11/28 03:53:25;;;;;;;5.95;4.68;;;22.80;34.60;;;;;;5044291;28;20049;-60
2021/11/28 03:55:53;;;;;;;5.15;4.57;;;22.80;34.60;;;;;;5046346;28;20078;-60
2021/11/28 03:58:21;;;;;;;5.50;4.95;;;22.80;34.60;;;;;;5045597;28;20102;-60
2021/11/28 04:00:49;;;;;;;5.10;4.32;;;22.80;34.60;;;;;;5044912;28;20074;-61
2021/11/28 04:03:16;;;;;;;5.38;4.72;;;22.80;34.60;;;;;;5047601;28;20063;-60
2021/11/28 04:05:43;;;;;;;5.63;5.00;;;22.80;35.10;;;;;;5065676;28;20055;-60
2021/11/28 04:08:11;;;;;;;5.32;4.75;;;22.80;34.60;;;;;;5065201;28;20105;-60
2021/11/28 04:10:38;;;;;;;5.03;4.53;;;22.80;34.60;;;;;;5066371;28;20051;-60
2021/11/28 04:13:05;;;;;;;5.40;4.45;;;22.80;34.70;;;;;;5051093;28;20142;-60
2021/11/28 04:15:33;;;;;;;6.82;5.25;;;22.70;34.60;;;;;;5065781;28;20081;-61
2021/11/28 04:18:00;;;;;;;5.45;4.80;;;22.80;34.70;;;;;;5045231;28;20583;-60
2021/11/28 04:20:27;;;;;;;5.35;4.85;;;22.80;34.70;;;;;;5028038;28;20414;-60
2021/11/28 04:22:55;;;;;;;5.88;4.75;;;22.80;34.70;;;;;;5041714;28;20501;-60
2021/11/28 04:25:22;;;;;;;5.03;4.10;;;22.70;34.70;;;;;;5065261;28;20048;-60
2021/11/28 04:27:50;;;;;;;6.07;4.90;;;22.70;34.70;;;;;;5065117;28;20052;-60
2021/11/28 04:30:17;;;;;;;5.18;4.65;;;22.70;34.70;;;;;;5063997;28;20083;-60
2021/11/28 04:32:44;;;;;;;5.05;4.55;;;22.70;34.70;;;;;;5048407;28;20087;-60
2021/11/28 04:35:12;;;;;;;5.47;4.68;;;22.70;34.70;;;;;;5043668;28;20048;-60
2021/11/28 04:37:39;;;;;;;5.00;4.35;;;22.70;34.70;;;;;;5044890;28;20135;-60
2021/11/28 04:40:09;;;;;;;4.65;4.25;;;22.70;34.70;;;;;;5044963;28;20441;-60
2021/11/28 04:42:36;;;;;;;5.78;4.65;;;22.70;34.70;;;;;;5042932;28;20076;-60
2021/11/28 04:45:05;;;;;;;6.07;5.10;;;22.70;34.70;;;;;;5044980;28;20052;-60
2021/11/28 04:47:33;;;;;;;5.03;4.53;;;22.70;34.70;;;;;;5044912;28;20135;-60
2021/11/28 04:50:01;;;;;;;5.22;4.60;;;22.70;34.80;;;;;;5044953;28;20062;-60
2021/11/28 04:52:28;;;;;;;4.57;4.15;;;22.70;34.80;;;;;;5037709;28;20441;-60
2021/11/28 04:54:55;;;;;;;6.38;4.72;;;22.70;34.80;;;;;;5044624;28;20053;-60
2021/11/28 04:57:22;;;;;;;5.15;4.65;;;22.70;34.80;;;;;;5045233;28;20515;-60
2021/11/28 04:59:49;;;;;;;5.63;5.03;;;22.70;34.80;;;;;;5044280;28;20139;-60
2021/11/28 05:02:16;;;;;;;7.95;5.40;;;22.70;34.80;;;;;;5040766;28;20052;-61
2021/11/28 05:04:44;;;;;;;5.38;4.82;;;22.70;34.80;;;;;;5044267;28;20055;-61
2021/11/28 05:07:11;;;;;;;5.57;4.38;;;22.70;34.80;;;;;;5044315;28;20643;-60
2021/11/28 05:09:38;;;;;;;4.68;4.25;;;22.70;34.80;;;;;;5043412;28;20048;-60
2021/11/28 05:12:06;;;;;;;5.47;4.45;;;22.70;34.80;;;;;;5044713;28;20558;-60
2021/11/28 05:14:33;;;;;;;5.25;4.20;;;22.70;34.80;;;;;;5061429;28;20105;-60
2021/11/28 05:17:00;;;;;;;4.40;3.97;;;22.70;34.80;;;;;;5053135;28;20504;-60
2021/11/28 05:19:27;;;;;;;5.15;4.57;;;22.70;34.80;;;;;;5043956;28;20063;-60
2021/11/28 05:21:56;;;;;;;5.05;4.03;;;22.70;34.80;;;;;;5039631;28;20136;-60
2021/11/28 05:24:23;;;;;;;4.43;4.03;;;22.70;34.80;;;;;;5041866;28;20044;-60
2021/11/28 05:26:50;;;;;;;4.97;4.47;;;22.70;34.80;;;;;;5044551;28;20106;-60
2021/11/28 05:29:18;;;;;;;5.13;4.30;;;22.70;34.80;;;;;;5043069;28;20053;-60
2021/11/28 05:31:46;;;;;;;4.53;3.92;;;22.70;34.80;;;;;;5037864;28;20145;-60
2021/11/28 05:34:13;;;;;;;5.32;4.15;;;22.70;34.80;;;;;;5041893;28;20493;-60
2021/11/28 05:36:40;;;;;;;4.68;3.95;;;22.70;34.80;;;;;;5044635;28;20049;-60
2021/11/28 05:39:07;;;;;;;5.03;4.47;;;22.70;34.80;;;;;;5045009;28;20091;-61
2021/11/28 05:41:34;;;;;;;4.85;4.20;;;22.70;34.80;;;;;;5045379;28;20250;-61
2021/11/28 05:44:02;;;;;;;5.05;4.55;;;22.70;34.80;;;;;;5045357;28;20102;-61
2021/11/28 05:46:29;;;;;;;5.05;4.20;;;22.70;34.80;;;;;;5042862;28;20276;-61
2021/11/28 05:48:57;;;;;;;4.50;3.88;;;22.70;34.70;;;;;;5042000;28;20059;-61
2021/11/28 05:51:24;;;;;;;5.10;4.28;;;22.70;34.70;;;;;;5041844;28;20059;-61
2021/11/28 05:53:51;;;;;;;5.13;4.63;;;22.70;34.70;;;;;;5032967;28;20048;-61
2021/11/28 05:56:18;;;;;;;5.05;4.55;;;22.70;34.70;;;;;;5030920;28;20053;-61
2021/11/28 05:58:45;;;;;;;4.90;4.38;;;22.70;34.80;;;;;;5030746;28;20088;-61
2021/11/28 06:01:13;;;;;;;4.18;3.78;;;22.70;34.80;;;;;;5026874;28;20134;-61
2021/11/28 06:03:41;;;;;;;5.95;4.15;;;22.70;34.80;;;;;;5042969;28;20147;-61
2021/11/28 06:06:08;;;;;;;5.25;4.57;;;22.70;34.80;;;;;;5042679;28;20048;-61
2021/11/28 06:08:36;;;;;;;5.18;4.35;;;22.70;34.80;;;;;;5026744;28;20502;-61
2021/11/28 06:11:03;;;;;;;5.75;4.65;;;22.70;34.80;;;;;;5023329;28;20045;-61
2021/11/28 06:13:31;;;;;;;4.95;4.00;;;22.70;34.70;;;;;;5039733;28;20056;-61
2021/11/28 06:15:58;;;;;;;6.22;4.78;;;22.70;34.70;;;;;;5044362;28;20075;-61
2021/11/28 06:18:26;;;;;;;4.97;4.47;;;22.70;34.70;;;;;;5043928;28;20048;-61
2021/11/28 06:20:54;;;;;;;4.93;4.43;;;22.70;34.60;;;;;;5042095;28;20621;-61
2021/11/28 06:23:22;;;;;;;5.10;4.55;;;22.70;34.60;;;;;;5040044;28;20102;-61
2021/11/28 06:25:49;;;;;;;4.90;4.40;;;22.70;34.50;;;;;;5043710;28;20102;-61
2021/11/28 06:28:33;;;;;;;5.10;4.45;;;22.80;34.50;;;;;;5044036;28;20053;-61
2021/11/28 06:31:00;;;;;;;4.85;4.20;;;22.80;34.40;;;;;;5040574;28;20493;-61
2021/11/28 06:33:28;;;;;;;5.38;4.72;;;22.80;34.40;;;;;;5043688;28;20477;-61
2021/11/28 06:35:55;;;;;;;4.82;4.32;;;22.90;34.30;;;;;;5041598;28;20561;-61
2021/11/28 06:38:22;;;;;;;4.70;4.13;;;22.90;34.20;;;;;;5043771;28;20049;-61
2021/11/28 06:40:50;;;;;;;5.05;4.53;;;22.90;34.10;;;;;;5042858;28;20551;-61
2021/11/28 06:43:17;;;;;;;4.22;3.75;;;23.00;34.00;;;;;;5049397;28;20101;-61
2021/11/28 06:45:45;;;;;;;4.78;4.07;;;23.00;34.00;;;;;;5065890;28;20827;-61
2021/11/28 06:48:12;;;;;;;5.00;4.50;;;23.10;33.90;;;;;;5066231;28;20051;-61
2021/11/28 06:50:39;;;;;;;4.53;4.13;;;23.20;33.90;;;;;;5066923;28;20076;-61
2021/11/28 06:53:06;;;;;;;4.53;3.72;;;23.20;33.80;;;;;;5041635;28;20127;-61
2021/11/28 06:55:34;;;;;;;4.15;3.75;;;23.30;33.70;;;;;;5047064;28;20673;-61
2021/11/28 06:58:01;;;;;;;4.82;4.05;;;23.30;33.60;;;;;;5047008;28;20649;-61
2021/11/28 07:00:28;;;;;;;4.00;3.60;;;23.40;33.60;;;;;;5046340;28;20493;-61
2021/11/28 07:02:56;;;;;;;3.78;3.45;;;23.40;33.50;;;;;;5046801;28;20522;-61
2021/11/28 07:05:24;;;;;;;4.22;3.80;;;23.50;33.40;;;;;;5067098;28;20056;-61
2021/11/28 07:07:51;;;;;;;4.95;4.32;;;23.60;33.40;;;;;;5067439;28;20084;-61
2021/11/28 07:10:18;;;;;;;4.63;4.13;;;23.60;33.20;;;;;;5064798;28;20052;-61
2021/11/28 07:12:45;;;;;;;4.28;3.88;;;23.70;33.10;;;;;;5053908;28;20059;-61
2021/11/28 07:15:14;;;;;;;4.90;3.97;;;23.80;33.00;;;;;;5066214;28;20052;-61
2021/11/28 07:17:41;;;;;;;4.50;4.13;;;23.90;33.00;;;;;;5048410;28;20048;-61
2021/11/28 07:20:09;;;;;;;3.97;3.67;;;23.90;32.80;;;;;;5046278;28;20060;-61
2021/11/28 07:22:36;;;;;;;4.63;4.22;;;24.00;32.70;;;;;;5047711;28;20044;-61
2021/11/28 07:25:04;;;;;;;4.25;3.83;;;24.10;32.60;;;;;;5066730;28;20051;-61
2021/11/28 07:27:31;;;;;;;4.40;3.78;;;24.20;32.60;;;;;;5066590;28;20044;-62
2021/11/28 07:30:01;;;;;;;4.20;3.80;;;24.20;32.40;;;;;;5066076;28;20496;-61
2021/11/28 07:32:28;;;;;;;4.30;3.90;;;24.30;32.40;;;;;;5048571;28;20143;-61
2021/11/28 07:34:55;;;;;;;4.35;3.50;;;24.30;32.30;;;;;;5065572;28;20138;-61
2021/11/28 07:37:23;;;;;;;4.28;3.80;;;24.40;32.30;;;;;;5067508;28;20052;-61
2021/11/28 07:39:50;;;;;;;4.57;4.18;;;24.50;32.20;;;;;;5067046;28;20055;-61
2021/11/28 07:42:18;;;;;;;4.72;4.30;;;24.50;32.20;;;;;;5047179;28;20090;-61
2021/11/28 07:44:45;;;;;;;3.92;3.60;;;24.50;32.20;;;;;;5046328;28;20048;-61
2021/11/28 07:47:12;;;;;;;4.03;3.63;;;24.60;32.20;;;;;;5046213;28;20131;-61
2021/11/28 07:49:39;;;;;;;3.80;3.40;;;24.60;32.10;;;;;;5045832;28;20074;-61
2021/11/28 07:52:07;;;;;;;4.30;3.90;;;24.70;32.10;;;;;;5049389;28;20489;-62
2021/11/28 07:54:35;;;;;;;3.88;3.45;;;24.70;32.00;;;;;;5044007;28;20444;-61
2021/11/28 07:57:02;;;;;;;4.18;3.75;;;24.80;32.10;;;;;;5046234;28;20407;-61
2021/11/28 07:59:33;;;;;;;3.42;3.15;;;24.90;32.30;;;;;;5046623;28;20079;-61
2021/11/28 08:02:02;;;;;;;3.50;3.20;;;24.90;32.00;;;;;;5047903;28;20079;-61
2021/11/28 08:04:30;;;;;;;3.97;3.17;;;24.90;32.00;;;;;;5062296;28;20459;-61
2021/11/28 08:06:59;;;;;;;3.40;3.10;;;25.00;31.90;;;;;;5065500;28;20052;-61
2021/11/28 08:09:26;;;;;;;3.10;2.90;;;25.00;31.90;;;;;;5065815;28;20501;-61
2021/11/28 08:11:53;;;;;;;2.72;2.53;;;25.00;31.80;;;;;;5054956;28;20489;-61
2021/11/28 08:14:20;;;;;;;3.28;2.85;;;25.10;31.90;;;;;;5045452;28;20095;-61
2021/11/28 08:16:48;;;;;;;3.60;3.30;;;25.10;31.90;;;;;;5043835;28;20052;-61
2021/11/28 08:19:15;;;;;;;3.80;3.50;;;25.10;31.80;;;;;;5045565;28;20053;-61
2021/11/28 08:21:44;;;;;;;2.92;2.72;;;25.10;31.80;;;;;;5039129;28;20048;-61
2021/11/28 08:24:11;;;;;;;4.03;3.13;;;25.20;31.80;;;;;;5058802;28;20120;-61
2021/11/28 08:26:43;;;;;;;3.40;2.95;;;25.30;31.80;;;;;;5065445;28;20102;-61
2021/11/28 08:29:10;;;;;;;3.28;2.80;;;25.30;31.70;;;;;;5064946;28;20078;-61
2021/11/28 08:31:38;;;;;;;3.70;3.40;;;25.40;31.80;;;;;;5058443;28;20048;-61
2021/11/28 08:34:05;;;;;;;3.20;2.90;;;25.40;31.70;;;;;;5042641;28;20048;-61
2021/11/28 08:36:33;;;;;;;3.20;2.90;;;25.40;31.60;;;;;;5044829;28;20048;-61
2021/11/28 08:39:00;;;;;;;3.10;2.90;;;25.50;31.60;;;;;;5045862;28;20448;-61
2021/11/28 08:41:33;;;;;;;3.42;3.03;;;25.50;31.60;;;;;;5043578;28;20056;-62
2021/11/28 08:44:01;;;;;;;3.53;2.92;;;25.60;31.60;;;;;;5057437;28;20048;-62
2021/11/28 08:46:28;;;;;;;2.97;2.78;;;25.60;31.50;;;;;;5065087;28;20748;-61
2021/11/28 08:48:57;;;;;;;3.40;2.90;;;25.70;31.50;;;;;;5064936;28;20511;-61
2021/11/28 08:51:26;;;;;;;3.33;2.80;;;25.70;31.40;;;;;;5057958;28;20052;-61
2021/11/28 08:53:58;;;;;;;3.00;2.80;;;25.80;31.40;;;;;;5055966;28;20405;-61
2021/11/28 08:56:27;;;;;;;3.10;2.80;;;25.80;31.30;;;;;;5064681;28;20360;-61
2021/11/28 08:58:54;;;;;;;3.00;2.70;;;25.90;31.30;;;;;;5064698;28;20109;-61
2021/11/28 09:01:21;;;;;;;2.67;2.47;;;26.00;31.40;;;;;;5056704;28;20151;-61
2021/11/28 09:03:49;;;;;;;3.00;2.72;;;26.00;31.30;;;;;;5045355;28;20501;-61
2021/11/28 09:06:16;;;;;;;3.03;2.72;;;26.00;31.20;;;;;;5042664;28;20060;-61
2021/11/28 09:08:44;;;;;;;2.65;2.45;;;26.00;31.20;;;;;;5043225;28;20048;-61
2021/11/28 09:11:11;;;;;;;2.58;2.40;;;26.10;31.20;;;;;;5043981;28;20107;-61
2021/11/28 09:13:38;;;;;;;3.33;2.50;;;26.10;31.10;;;;;;5042310;28;21117;-61
2021/11/28 09:16:08;;;;;;;3.03;2.60;;;26.20;31.20;;;;;;5044709;28;20051;-61
2021/11/28 09:18:42;;;;;;;3.33;3.00;;;26.20;31.10;;;;;;5044478;28;20053;-61
2021/11/28 09:21:12;;;;;;;2.42;2.22;;;26.30;31.10;;;;;;5041031;28;20075;-61
2021/11/28 09:26:26;;;;;;;2.58;2.47;;;26.30;31.00;;;;;;5064719;28;20502;-61
2021/11/28 09:28:54;;;;;;;3.22;2.83;;;26.40;31.00;;;;;;5064107;28;20087;-61
2021/11/28 09:31:21;;;;;;;2.97;2.67;;;26.40;30.90;;;;;;5060328;28;20412;-61
2021/11/28 09:33:48;;;;;;;2.83;2.63;;;26.40;30.90;;;;;;5038422;28;20052;-61
2021/11/28 09:36:15;;;;;;;3.67;2.80;;;26.40;30.90;;;;;;5044770;28;20052;-61
2021/11/28 09:38:43;;;;;;;2.60;2.40;;;26.50;30.90;;;;;;5042763;28;20097;-61
2021/11/28 09:41:11;;;;;;;2.58;2.38;;;26.50;30.90;;;;;;5043945;28;20143;-61
2021/11/28 09:43:42;;;;;;;2.45;2.25;;;26.50;30.90;;;;;;5060401;28;20044;-61
2021/11/28 09:46:10;;;;;;;3.47;3.17;;;26.50;30.90;;;;;;5046517;28;20048;-61
2021/11/28 09:48:38;;;;;;;2.80;2.60;;;26.50;30.80;;;;;;5064032;28;20052;-61
2021/11/28 09:51:07;;;;;;;2.70;2.47;;;26.50;30.90;;;;;;5059543;28;20055;-61
2021/11/28 09:53:37;;;;;;;2.92;2.70;;;26.50;31.00;;;;;;5055403;28;20052;-61
2021/11/28 09:56:06;;;;;;;3.30;3.00;;;26.50;31.00;;;;;;5063793;28;20493;-61
2021/11/28 09:58:34;;;;;;;3.38;2.75;;;26.50;31.00;;;;;;5063117;28;20448;-61
2021/11/28 10:01:02;;;;;;;2.95;2.75;;;26.50;31.00;;;;;;5058958;28;20059;-61
2021/11/28 10:03:30;;;;;;;2.72;2.53;;;26.50;31.00;;;;;;5050131;28;20052;-62
2021/11/28 10:05:57;;;;;;;2.92;2.70;;;26.50;31.00;;;;;;5063747;28;20056;-61
2021/11/28 10:08:25;;;;;;;2.63;2.45;;;26.50;31.00;;;;;;5064428;28;20056;-61
2021/11/28 10:11:23;;;;;;;2.53;2.33;;;26.50;31.00;;;;;;5062708;28;20048;-62
2021/11/28 10:13:53;;;;;;;2.63;2.40;;;26.50;31.00;;;;;;5051330;28;20105;-61
2021/11/28 10:16:21;;;;;;;2.33;2.13;;;26.50;31.00;;;;;;5059905;28;20485;-61
2021/11/28 10:18:50;;;;;;;2.38;2.17;;;26.40;30.90;;;;;;5047654;28;20056;-62
2021/11/28 10:21:17;;;;;;;2.60;2.40;;;26.40;31.00;;;;;;5009638;28;20131;-61
2021/11/28 10:24:06;;;;;;;2.78;2.58;;;26.50;31.00;;;;;;5040580;28;20110;-61
2021/11/28 10:26:54;;;;;;;2.60;2.40;;;26.50;31.00;;;;;;5048554;28;20052;-61
2021/11/28 10:29:26;;;;;;;2.00;1.90;;;26.50;31.00;;;;;;5047325;28;20059;-62
2021/11/28 10:31:56;;;;;;;2.92;2.72;;;26.50;31.10;;;;;;5042092;28;20049;-61
2021/11/28 10:34:39;;;;;;;2.72;2.53;;;26.50;31.00;;;;;;5045124;28;20052;-61
2021/11/28 10:37:16;;;;;;;2.70;2.50;;;26.40;31.00;;;;;;5047849;28;20126;-61
2021/11/28 10:39:55;;;;;;;2.75;2.50;;;26.30;31.20;;;;;;5046834;28;20052;-61
2021/11/28 10:42:33;;;;;;;2.78;2.58;;;26.30;31.20;;;;;;5038037;28;20080;-62
2021/11/28 10:45:11;;;;;;;2.78;2.58;;;26.20;31.30;;;;;;5047091;28;20080;-61
2021/11/28 10:47:43;;;;;;;3.17;2.72;;;26.10;31.30;;;;;;5048289;28;20456;-62
2021/11/28 10:50:26;;;;;;;2.97;2.50;;;26.00;31.40;;;;;;5046652;28;20106;-61
2021/11/28 10:53:05;;;;;;;3.50;2.95;;;25.90;31.50;;;;;;5046887;28;20091;-61
2021/11/28 10:55:44;;;;;;;5.57;3.20;;;25.90;31.60;;;;;;5066015;28;20059;-61
2021/11/28 10:58:20;;;;;;;2.85;2.42;;;25.80;31.60;;;;;;5067499;28;20131;-61
2021/11/28 11:01:08;;;;;;;3.85;2.40;;;25.70;31.60;;;;;;5066654;28;20455;-61
2021/11/28 11:03:47;;;;;;;3.67;2.72;;;25.70;31.80;;;;;;5059168;28;20058;-62
2021/11/28 11:06:25;;;;;;;3.45;2.55;;;25.60;31.70;;;;;;5067530;28;20084;-61
2021/11/28 11:09:17;;;;;;;2.38;2.10;;;25.60;31.90;;;;;;5067095;28;20048;-62
2021/11/28 11:11:44;;;;;;;3.05;2.75;;;25.50;31.90;;;;;;5055329;28;20044;-61
2021/11/28 11:14:12;;;;;;;2.50;2.30;;;25.50;31.90;;;;;;5064187;28;20055;-61
2021/11/28 11:16:42;;;;;;;2.50;2.22;;;25.40;31.90;;;;;;5057169;28;20080;-64
2021/11/28 11:19:39;;;;;;;3.10;2.22;;;25.40;32.00;;;;;;5046439;28;20102;-61
2021/11/28 11:22:18;;;;;;;2.17;2.00;;;25.30;31.90;;;;;;5049947;28;20501;-61
2021/11/28 11:24:51;;;;;;;2.28;2.08;;;25.30;32.10;;;;;;5045902;28;20052;-61
2021/11/28 11:27:22;;;;;;;2.92;2.55;;;25.20;32.00;;;;;;5045542;28;20169;-61
2021/11/28 11:29:53;;;;;;;3.35;2.80;;;25.20;32.10;;;;;;5046239;28;20063;-61
2021/11/28 11:32:22;;;;;;;;;;;25.10;32.20;;;;;;5044327;28;20524;-62
2021/11/28 11:34:57;;;;;;;2.55;2.08;;;25.10;32.20;;;;;;5045719;28;19960;-62
2021/11/28 11:37:28;;;;;;;2.80;2.30;;;25.10;32.30;;;;;;5046132;28;20501;-61
2021/11/28 11:39:57;;;;;;;2.42;2.22;;;25.00;32.30;;;;;;5045774;28;20663;-61
2021/11/28 11:42:27;;;;;;;3.38;2.70;;;25.00;32.40;;;;;;5022445;28;20048;-61
2021/11/28 11:44:55;;;;;;;2.13;1.95;;;25.00;32.50;;;;;;5066376;28;20059;-61
2021/11/28 11:47:23;;;;;;;2.58;2.38;;;24.90;32.50;;;;;;5066551;28;20056;-61
2021/11/28 11:49:51;;;;;;;2.65;2.45;;;24.90;32.50;;;;;;5065730;28;20052;-61
2021/11/28 11:52:19;;;;;;;3.33;2.78;;;24.90;32.60;;;;;;5047123;28;20874;-61
2021/11/28 11:54:54;;;;;;;2.72;2.53;;;24.80;32.60;;;;;;5045730;28;20113;-61
2021/11/28 11:57:26;;;;;;;3.42;3.08;;;24.80;32.70;;;;;;5045762;28;20444;-61
2021/11/28 12:00:26;;;;;;;3.72;3.10;;;24.80;32.70;;;;;;5044068;28;20135;-61
2021/11/28 12:02:54;;;;;;;;;;;24.70;32.70;;;;;;5038599;28;20456;-61
2021/11/28 12:05:30;;;;;;;3.55;3.25;;;24.70;32.80;;;;;;5045360;28;20336;-61
2021/11/28 12:08:19;;;;;;;4.85;3.88;;;24.70;32.80;;;;;;5044143;28;20552;-61
2021/11/28 12:10:55;;;;;;;5.32;3.95;;;24.70;32.90;;;;;;5044521;28;20105;-61
2021/11/28 12:13:50;;;;;;;5.22;4.00;;;24.70;32.90;;;;;;5041750;28;20048;-61
2021/11/28 12:16:19;;;;;;;6.40;4.40;;;24.70;33.00;;;;;;5045916;28;20135;-61
2021/11/28 12:18:49;;;;;;;6.70;4.28;;;24.60;32.90;;;;;;5045240;28;20095;-61
2021/11/28 12:21:38;;;;;;;4.90;4.40;;;24.60;33.00;;;;;;5041006;28;20922;-61
2021/11/28 12:24:11;;;;;;;5.70;4.30;;;24.60;33.00;;;;;;5062585;28;20143;-61
2021/11/28 12:26:47;;;;;;;5.68;4.80;;;24.60;33.10;;;;;;5065222;28;20095;-61
2021/11/28 12:29:24;;;;;;;7.20;5.13;;;24.60;33.10;;;;;;5065144;28;20101;-61
2021/11/28 12:31:54;;;;;;;8.50;5.38;;;24.60;33.10;;;;;;5051703;28;20084;-62
2021/11/28 12:34:46;;;;;;;6.10;4.63;;;24.60;33.10;;;;;;5043232;28;20155;-61
2021/11/28 12:37:31;;;;;;;5.65;4.50;;;24.60;33.20;;;;;;5045026;28;20135;-61
2021/11/28 12:40:24;;;;;;;6.00;4.68;;;24.60;33.20;;;;;;5044588;28;20519;-61
2021/11/28 12:42:53;;;;;;;6.95;5.30;;;24.60;33.20;;;;;;5042709;28;20087;-62
2021/11/28 12:45:36;;;;;;;6.07;4.60;;;24.60;33.20;;;;;;5044761;28;20122;-61
2021/11/28 12:48:07;;;;;;;6.65;4.95;;;24.50;33.30;;;;;;5045708;28;20052;-61
2021/11/28 12:50:57;;;;;;;8.40;5.78;;;24.60;33.30;;;;;;5044829;28;20056;-61
2021/11/28 12:53:36;;;;;;;7.43;5.45;;;24.60;33.40;;;;;;5045231;28;20106;-61
2021/11/28 12:56:18;;;;;;;6.45;5.03;;;24.50;33.30;;;;;;5045092;28;20106;-61
2021/11/28 12:59:15;;;;;;;6.65;5.05;;;24.50;33.40;;;;;;5045190;28;20052;-61
2021/11/28 13:01:59;;;;;;;7.40;5.63;;;24.50;33.40;;;;;;5024425;28;20114;-61
2021/11/28 13:04:44;;;;;;;5.80;5.20;;;24.50;33.40;;;;;;5040788;28;20293;-61
2021/11/28 13:07:34;;;;;;;6.95;5.10;;;24.50;33.50;;;;;;5024569;28;20064;-61